Time;durP1;ratioP1;P1;durP2;ratioP2;P2;SDS_P1;SDS_P2;PMS_P1;PMS_P2;Temp;Humidity;BMP_temperature;BMP_pressure;BME280_temperature;BME280_humidity;BME280_pressure;Samples;Min_cycle;Max_cycle;Signal;HPM_P1;HPM_P2
2022/04/26 03:36:08;;;;;;;10.02;4.13;;;5.90;99.90;;;;;;4971341;28;20139;-56
2022/04/26 03:38:35;;;;;;;8.48;4.03;;;5.80;99.90;;;;;;4986239;28;20123;-54
2022/04/26 03:41:01;;;;;;;8.82;3.65;;;5.70;99.90;;;;;;4989111;28;20085;-56
2022/04/26 03:43:29;;;;;;;8.90;4.85;;;5.70;99.90;;;;;;4983791;28;20137;-56
2022/04/26 03:45:57;;;;;;;9.18;3.85;;;5.70;99.90;;;;;;5005412;28;20054;-56
2022/04/26 03:48:25;;;;;;;10.48;4.65;;;5.70;99.90;;;;;;4988902;28;20539;-56
2022/04/26 03:50:51;;;;;;;12.38;4.13;;;5.60;99.90;;;;;;4990442;28;20134;-55
2022/04/26 03:53:18;;;;;;;9.40;5.20;;;5.60;99.90;;;;;;4989898;28;20046;-56
2022/04/26 03:55:45;;;;;;;8.98;4.72;;;5.60;99.90;;;;;;4990163;28;20050;-54
2022/04/26 03:58:12;;;;;;;10.48;4.20;;;5.60;99.90;;;;;;4989905;28;20403;-55
2022/04/26 04:00:39;;;;;;;8.18;4.05;;;5.50;99.90;;;;;;4989678;28;20089;-54
2022/04/26 04:03:05;;;;;;;8.32;4.00;;;5.50;99.90;;;;;;4982541;28;20050;-54
2022/04/26 04:05:33;;;;;;;12.88;5.93;;;5.50;99.90;;;;;;4990034;28;20046;-56
2022/04/26 04:07:59;;;;;;;10.05;4.90;;;5.40;99.90;;;;;;4989997;28;20054;-57
2022/04/26 04:10:26;;;;;;;10.52;5.13;;;5.40;99.90;;;;;;4989386;28;20117;-56
2022/04/26 04:12:53;;;;;;;10.05;4.22;;;5.30;99.90;;;;;;4989616;28;20133;-56
2022/04/26 04:15:20;;;;;;;9.65;4.55;;;5.20;99.90;;;;;;4989899;28;20108;-57
2022/04/26 04:17:46;;;;;;;10.00;4.97;;;5.20;99.90;;;;;;4990063;28;20046;-55
2022/04/26 04:20:15;;;;;;;9.75;5.07;;;5.20;99.90;;;;;;4988708;28;20073;-53
2022/04/26 04:22:42;;;;;;;12.25;5.22;;;5.10;99.90;;;;;;4989543;28;20054;-56
2022/04/26 04:25:09;;;;;;;15.10;4.22;;;5.10;99.90;;;;;;4989477;28;20077;-54
2022/04/26 04:27:35;;;;;;;16.55;4.95;;;5.10;99.90;;;;;;4989591;28;20064;-55
2022/04/26 04:30:03;;;;;;;6.80;3.85;;;5.10;99.90;;;;;;4989518;28;20082;-55
2022/04/26 04:32:29;;;;;;;11.80;4.30;;;5.00;99.90;;;;;;4989640;28;20129;-55
2022/04/26 04:34:58;;;;;;;11.00;5.05;;;5.10;99.90;;;;;;4989371;28;20051;-55
2022/04/26 04:37:25;;;;;;;9.02;4.50;;;4.90;99.90;;;;;;4989673;28;20077;-55
2022/04/26 04:39:52;;;;;;;15.52;5.28;;;5.00;99.90;;;;;;4989422;28;20096;-56
2022/04/26 04:42:21;;;;;;;8.40;4.75;;;5.00;99.90;;;;;;4975845;28;20047;-52
2022/04/26 04:44:48;;;;;;;9.55;4.95;;;5.10;99.90;;;;;;4976990;28;20100;-56
2022/04/26 04:47:14;;;;;;;17.42;4.82;;;5.00;99.90;;;;;;4989197;28;20129;-50
2022/04/26 04:49:41;;;;;;;11.10;4.97;;;5.10;99.90;;;;;;4989072;28;20046;-53
2022/04/26 04:52:08;;;;;;;9.88;5.25;;;5.10;99.90;;;;;;4989192;28;20042;-57
2022/04/26 04:54:35;;;;;;;10.65;5.28;;;5.10;99.90;;;;;;4988766;28;20184;-55
2022/04/26 04:57:04;;;;;;;10.52;5.47;;;5.10;99.90;;;;;;4988839;28;20054;-57
2022/04/26 04:59:30;;;;;;;11.57;4.95;;;5.10;99.90;;;;;;4988965;28;20133;-56
2022/04/26 05:01:58;;;;;;;13.20;5.32;;;5.00;99.90;;;;;;4989170;28;20056;-57
2022/04/26 05:04:25;;;;;;;9.90;4.55;;;5.00;99.90;;;;;;4989212;28;20081;-55
2022/04/26 05:06:51;;;;;;;9.77;4.20;;;5.00;99.90;;;;;;4988805;28;20132;-54
2022/04/26 05:09:18;;;;;;;15.70;5.55;;;4.80;99.90;;;;;;4988905;28;20089;-56
2022/04/26 05:11:45;;;;;;;13.95;4.65;;;4.70;99.90;;;;;;4985062;28;20133;-55
2022/04/26 05:14:12;;;;;;;10.70;4.63;;;4.70;99.90;;;;;;4989262;28;20670;-56
2022/04/26 05:16:38;;;;;;;15.77;4.47;;;4.80;99.90;;;;;;4988414;28;20131;-56
2022/04/26 05:19:05;;;;;;;9.98;4.85;;;4.80;99.90;;;;;;4989029;28;20133;-55
2022/04/26 05:21:32;;;;;;;14.13;5.57;;;4.80;99.90;;;;;;4988248;28;20497;-56
2022/04/26 05:26:44;;;;;;;13.20;5.57;;;4.70;99.90;;;;;;4988576;28;20074;-55
2022/04/26 05:29:11;;;;;;;12.57;5.90;;;4.80;99.90;;;;;;4988282;28;20078;-54
2022/04/26 05:31:38;;;;;;;14.45;4.82;;;4.80;99.90;;;;;;4988631;28;20082;-55
2022/04/26 05:34:05;;;;;;;16.45;6.13;;;4.80;99.90;;;;;;4988471;28;20519;-56
2022/04/26 05:36:32;;;;;;;13.23;5.93;;;4.90;99.90;;;;;;4987875;28;20053;-56
2022/04/26 05:39:00;;;;;;;15.85;7.22;;;4.90;99.90;;;;;;4980052;28;20086;-55
2022/04/26 05:41:26;;;;;;;13.05;6.38;;;4.90;99.90;;;;;;4981213;28;20141;-55
2022/04/26 05:43:53;;;;;;;12.02;6.35;;;4.90;99.90;;;;;;4974054;28;20089;-56
2022/04/26 05:46:20;;;;;;;14.43;5.78;;;4.90;99.90;;;;;;4978350;28;20505;-56
2022/04/26 05:48:47;;;;;;;16.98;6.35;;;5.00;99.90;;;;;;4981652;28;20046;-53
2022/04/26 05:51:13;;;;;;;17.25;5.38;;;5.00;99.90;;;;;;4973859;28;20078;-56
2022/04/26 05:53:41;;;;;;;17.13;5.93;;;5.10;99.90;;;;;;5003255;28;20039;-53
2022/04/26 05:56:12;;;;;;;20.48;7.50;;;5.10;99.90;;;;;;4988239;28;20097;-57
2022/04/26 05:58:39;;;;;;;16.55;6.78;;;5.20;99.90;;;;;;4988314;28;20054;-56
2022/04/26 06:01:06;;;;;;;21.65;6.25;;;5.40;99.90;;;;;;4988230;28;20054;-55
2022/04/26 06:03:34;;;;;;;16.05;6.38;;;5.50;99.90;;;;;;4988149;28;20073;-54
2022/04/26 06:06:01;;;;;;;13.30;7.00;;;5.60;99.90;;;;;;4988546;28;20050;-56
2022/04/26 06:08:28;;;;;;;19.77;7.95;;;6.10;99.90;;;;;;4984682;28;20085;-55
2022/04/26 06:10:54;;;;;;;15.90;7.20;;;5.80;99.90;;;;;;4978543;28;20074;-56
2022/04/26 06:13:21;;;;;;;16.40;7.20;;;5.80;99.90;;;;;;4982393;28;20150;-55
2022/04/26 06:15:48;;;;;;;11.05;6.38;;;5.90;99.90;;;;;;4972286;28;20138;-54
2022/04/26 06:18:14;;;;;;;19.02;6.68;;;5.90;99.90;;;;;;4978236;28;20584;-55
2022/04/26 06:20:41;;;;;;;11.88;5.80;;;6.00;99.90;;;;;;4987517;28;20129;-54
2022/04/26 06:23:09;;;;;;;18.45;7.15;;;6.10;99.90;;;;;;4987538;28;20081;-57
2022/04/26 06:25:38;;;;;;;13.75;6.35;;;6.20;99.90;;;;;;4987780;28;20157;-56
2022/04/26 06:28:06;;;;;;;20.08;6.65;;;6.30;99.90;;;;;;4987371;28;20085;-57
2022/04/26 06:30:34;;;;;;;17.67;6.68;;;6.40;99.90;;;;;;4987779;28;20054;-56
2022/04/26 06:33:01;;;;;;;25.63;6.07;;;6.50;99.90;;;;;;4987248;28;20085;-56
2022/04/26 06:35:28;;;;;;;12.30;4.88;;;6.60;99.90;;;;;;4987865;28;20093;-62
2022/04/26 06:37:55;;;;;;;17.48;5.70;;;6.70;99.90;;;;;;4979709;28;20785;-57
2022/04/26 06:40:22;;;;;;;15.90;5.82;;;6.70;99.90;;;;;;4986142;28;20134;-58
2022/04/26 06:42:48;;;;;;;12.32;5.13;;;6.80;99.90;;;;;;4981845;28;20075;-56
2022/04/26 06:45:15;;;;;;;13.65;4.53;;;7.00;99.90;;;;;;4989511;28;20407;-55
2022/04/26 06:47:45;;;;;;;20.48;4.35;;;7.10;99.90;;;;;;4988936;28;20073;-56
2022/04/26 06:50:11;;;;;;;9.35;3.45;;;7.10;99.90;;;;;;4988853;28;20105;-56
2022/04/26 06:52:38;;;;;;;14.73;3.38;;;7.20;99.90;;;;;;4988971;28;20108;-55
2022/04/26 06:55:05;;;;;;;6.00;4.32;;;7.30;99.90;;;;;;4994787;28;20052;-56
2022/04/26 06:57:34;;;;;;;10.98;3.72;;;7.40;99.90;;;;;;4969832;28;20514;-58
2022/04/26 07:00:01;;;;;;;13.48;3.40;;;7.50;99.90;;;;;;4980628;28;20158;-59
2022/04/26 07:02:28;;;;;;;6.75;3.15;;;7.60;99.90;;;;;;4990197;28;20046;-57
2022/04/26 07:04:56;;;;;;;11.65;3.13;;;7.60;99.90;;;;;;4989529;28;20056;-58
2022/04/26 07:07:23;;;;;;;9.75;3.03;;;7.70;99.90;;;;;;4989408;28;20046;-58
2022/04/26 07:09:50;;;;;;;9.38;3.47;;;7.80;99.90;;;;;;4989613;28;20540;-57
2022/04/26 07:12:19;;;;;;;9.45;2.80;;;7.90;99.90;;;;;;4977514;28;20046;-59
2022/04/26 07:14:46;;;;;;;13.07;3.20;;;8.00;99.90;;;;;;4977708;28;20050;-57
2022/04/26 07:17:12;;;;;;;20.75;5.32;;;8.00;99.90;;;;;;4988825;28;20470;-56
2022/04/26 07:19:39;;;;;;;16.73;4.28;;;8.20;99.90;;;;;;4988305;28;20126;-56
2022/04/26 07:22:25;;;;;;;8.80;2.08;;;8.30;99.90;;;;;;4979796;28;20057;-58
2022/04/26 07:24:52;;;;;;;5.60;2.45;;;8.30;99.90;;;;;;4988256;28;20042;-57
2022/04/26 07:27:20;;;;;;;7.45;2.42;;;8.30;99.90;;;;;;4977831;28;20130;-58
2022/04/26 07:29:50;;;;;;;11.00;2.75;;;8.40;99.90;;;;;;4988630;28;20047;-57
2022/04/26 07:32:17;;;;;;;10.55;2.47;;;8.50;99.90;;;;;;4988026;28;20133;-59
2022/04/26 07:34:45;;;;;;;8.77;2.25;;;8.50;99.90;;;;;;4980784;28;20059;-57
2022/04/26 07:37:12;;;;;;;3.83;2.22;;;8.60;99.90;;;;;;4975420;28;20117;-57
2022/04/26 07:39:38;;;;;;;13.15;2.20;;;8.60;99.90;;;;;;4978673;28;20081;-58
2022/04/26 07:42:05;;;;;;;4.57;2.03;;;8.70;99.90;;;;;;4985635;28;20129;-57
2022/04/26 07:44:34;;;;;;;4.63;2.58;;;8.70;99.90;;;;;;4978693;28;20062;-56
2022/04/26 07:47:03;;;;;;;11.93;2.63;;;8.80;99.90;;;;;;4987834;28;20057;-53
2022/04/26 07:49:30;;;;;;;7.05;2.35;;;8.90;99.90;;;;;;4988014;28;20093;-57
2022/04/26 07:51:57;;;;;;;5.68;2.40;;;9.00;99.90;;;;;;4985179;28;20563;-55
2022/04/26 07:54:27;;;;;;;6.35;2.55;;;9.00;99.90;;;;;;4986335;28;20050;-58
2022/04/26 07:56:55;;;;;;;6.30;2.20;;;9.10;99.90;;;;;;4978031;28;20078;-58
2022/04/26 07:59:22;;;;;;;7.00;2.40;;;9.10;99.90;;;;;;4975840;28;20150;-58
2022/04/26 08:01:49;;;;;;;7.10;1.77;;;9.20;99.90;;;;;;4980263;28;20467;-59
2022/04/26 08:04:16;;;;;;;6.40;2.50;;;9.20;99.90;;;;;;4991222;28;20061;-56
2022/04/26 08:06:44;;;;;;;6.65;1.70;;;9.30;99.90;;;;;;4989332;28;20508;-58
2022/04/26 08:09:10;;;;;;;7.65;2.03;;;9.40;99.90;;;;;;4989838;28;20058;-54
2022/04/26 08:11:38;;;;;;;4.05;1.73;;;9.40;99.90;;;;;;4988440;28;20081;-57
2022/04/26 08:14:05;;;;;;;3.05;1.70;;;9.50;99.90;;;;;;4968470;28;20545;-56
2022/04/26 08:16:31;;;;;;;5.53;1.85;;;9.50;99.90;;;;;;4972601;28;20045;-54
2022/04/26 08:18:59;;;;;;;4.15;1.50;;;9.60;99.90;;;;;;4987389;28;20527;-57
2022/04/26 08:21:26;;;;;;;3.50;1.60;;;9.60;99.90;;;;;;4987678;28;20081;-58
2022/04/26 08:29:24;;;;;;;2.60;1.35;;;9.90;99.90;;;;;;4978762;28;20108;-58
2022/04/26 08:31:50;;;;;;;2.78;1.27;;;10.00;99.90;;;;;;4988860;28;20138;-57
2022/04/26 08:34:17;;;;;;;3.75;1.50;;;10.00;99.60;;;;;;4988836;28;20137;-58
2022/04/26 08:36:46;;;;;;;4.22;1.30;;;10.10;99.60;;;;;;4988926;28;20084;-58
2022/04/26 08:39:13;;;;;;;3.28;1.48;;;10.10;99.40;;;;;;4988965;28;20066;-53
2022/04/26 08:41:39;;;;;;;4.40;2.50;;;10.20;99.30;;;;;;4988416;28;20085;-56
2022/04/26 08:44:13;;;;;;;4.88;1.60;;;10.30;98.80;;;;;;4988652;28;20088;-54
2022/04/26 08:52:10;;;;;;;2.50;0.80;;;10.50;97.80;;;;;;4988832;28;20084;-59
2022/04/26 08:54:37;;;;;;;1.27;1.15;;;10.60;96.40;;;;;;4988689;28;20177;-57
2022/04/26 08:57:09;;;;;;;3.40;0.88;;;10.60;97.50;;;;;;5002783;28;20096;-57
2022/04/26 08:59:44;;;;;;;8.57;1.60;;;10.60;96.70;;;;;;4986789;28;20039;-56
2022/04/26 09:02:18;;;;;;;4.40;1.15;;;10.70;96.90;;;;;;4987276;28;20050;-59
2022/04/26 09:04:51;;;;;;;2.10;1.05;;;10.80;95.20;;;;;;4988563;28;20050;-57
2022/04/26 09:07:31;;;;;;;1.90;1.00;;;10.80;92.60;;;;;;4987385;28;20054;-59
2022/04/26 09:10:10;;;;;;;2.67;1.13;;;10.90;91.10;;;;;;4988425;28;20101;-56
2022/04/26 09:13:09;;;;;;;4.82;1.15;;;10.90;93.70;;;;;;4988496;28;20055;-57
2022/04/26 09:15:56;;;;;;;1.35;0.82;;;11.00;92.80;;;;;;4986014;28;20069;-56
2022/04/26 09:18:29;;;;;;;7.97;1.00;;;11.20;91.90;;;;;;4988494;28;20101;-58
2022/04/26 09:21:07;;;;;;;2.70;1.02;;;11.30;94.90;;;;;;4979051;28;20470;-56
2022/04/26 09:23:34;;;;;;;6.05;1.60;;;11.40;92.70;;;;;;4988420;28;20043;-57
2022/04/26 09:26:11;;;;;;;4.53;1.23;;;11.50;95.50;;;;;;4987214;28;20507;-58
2022/04/26 09:28:43;;;;;;;1.95;1.00;;;11.60;90.60;;;;;;4988344;28;20141;-56
2022/04/26 09:31:23;;;;;;;4.50;0.98;;;11.60;93.30;;;;;;4988283;28;20142;-58
2022/04/26 09:33:56;;;;;;;2.33;1.45;;;11.70;90.90;;;;;;4988078;28;20469;-57
2022/04/26 09:36:24;;;;;;;2.90;1.35;;;11.80;92.00;;;;;;4988524;28;20069;-57
2022/04/26 09:38:53;;;;;;;4.80;1.23;;;11.80;91.00;;;;;;4987451;28;20128;-55
2022/04/26 09:41:20;;;;;;;1.33;1.00;;;11.90;93.60;;;;;;4988236;28;20101;-55
2022/04/26 09:43:56;;;;;;;4.25;1.00;;;12.20;91.80;;;;;;4987186;28;20054;-56
2022/04/26 09:46:24;;;;;;;4.65;1.13;;;12.50;90.30;;;;;;4988199;28;20076;-57
2022/04/26 09:48:52;;;;;;;4.47;1.10;;;12.90;92.70;;;;;;5003010;28;20501;-57
2022/04/26 09:51:18;;;;;;;3.28;0.75;;;13.20;90.60;;;;;;4987617;28;20078;-60
2022/04/26 09:53:45;;;;;;;5.55;2.28;;;13.40;90.50;;;;;;4988174;28;20134;-57
2022/04/26 09:56:13;;;;;;;1.63;0.80;;;13.70;89.50;;;;;;4987805;28;20778;-56
2022/04/26 09:58:49;;;;;;;1.10;0.75;;;14.00;90.30;;;;;;4969127;28;20049;-57
2022/04/26 10:01:16;;;;;;;3.70;0.95;;;14.20;90.20;;;;;;4982311;28;20062;-57
2022/04/26 10:03:43;;;;;;;10.05;1.10;;;14.40;90.20;;;;;;5002935;28;20222;-56
2022/04/26 10:06:10;;;;;;;1.30;1.10;;;14.60;90.40;;;;;;4986677;28;20050;-57
2022/04/26 10:08:38;;;;;;;2.90;1.00;;;14.80;82.00;;;;;;4986757;28;20753;-56
2022/04/26 10:11:05;;;;;;;6.65;1.35;;;14.90;89.80;;;;;;5006409;28;20104;-56
2022/04/26 10:13:42;;;;;;;1.48;0.90;;;15.20;85.90;;;;;;4991699;28;20082;-57
2022/04/26 10:16:17;;;;;;;1.30;0.90;;;15.30;81.30;;;;;;4990312;28;20058;-56
2022/04/26 10:18:45;;;;;;;1.77;1.05;;;15.50;77.30;;;;;;4986707;28;20097;-58
2022/04/26 10:21:32;;;;;;;1.95;0.98;;;15.60;78.00;;;;;;4980874;28;20565;-59
2022/04/26 10:24:03;;;;;;;4.03;1.10;;;15.70;85.10;;;;;;4991466;28;20112;-58
2022/04/26 10:26:36;;;;;;;4.57;1.13;;;15.70;81.20;;;;;;4991694;28;20061;-59
2022/04/26 10:29:09;;;;;;;5.30;1.60;;;15.70;77.90;;;;;;4991521;28;20645;-58
2022/04/26 10:31:46;;;;;;;2.50;1.00;;;15.50;79.30;;;;;;4991284;28;20498;-56
2022/04/26 10:34:31;;;;;;;1.75;1.05;;;15.20;84.10;;;;;;4991166;28;20476;-57
2022/04/26 10:37:05;;;;;;;4.13;1.30;;;14.90;76.50;;;;;;4991011;28;20046;-56
2022/04/26 10:39:39;;;;;;;4.65;1.00;;;14.70;80.00;;;;;;4990619;28;20112;-58
2022/04/26 10:42:16;;;;;;;1.90;1.10;;;14.60;76.50;;;;;;4991088;28;20046;-57
2022/04/26 10:44:44;;;;;;;11.82;1.40;;;14.50;73.60;;;;;;4994219;28;20081;-57
2022/04/26 10:47:18;;;;;;;4.38;1.42;;;14.40;82.60;;;;;;4991096;28;20092;-58
2022/04/26 10:49:45;;;;;;;2.95;1.10;;;14.20;80.30;;;;;;4991325;28;20152;-58
2022/04/26 10:52:17;;;;;;;5.75;1.23;;;14.10;84.00;;;;;;4990821;28;20513;-58
2022/04/26 10:54:55;;;;;;;3.78;1.52;;;14.00;83.00;;;;;;4990917;28;20050;-58
2022/04/26 10:57:27;;;;;;;2.55;1.80;;;13.90;81.50;;;;;;4990472;28;20073;-55
2022/04/26 10:59:59;;;;;;;3.53;1.40;;;13.80;80.60;;;;;;5005445;28;20560;-57
2022/04/26 11:02:35;;;;;;;1.30;1.02;;;13.80;76.80;;;;;;4990579;28;20081;-57
2022/04/26 11:05:13;;;;;;;2.30;0.93;;;13.70;80.80;;;;;;4990928;28;20125;-59
2022/04/26 11:07:41;;;;;;;3.10;1.05;;;13.80;81.70;;;;;;4989352;28;20057;-57
2022/04/26 11:10:09;;;;;;;1.45;1.00;;;13.80;81.60;;;;;;4984620;28;20413;-59
2022/04/26 11:12:37;;;;;;;2.45;1.40;;;13.70;80.90;;;;;;4990305;28;20520;-57
2022/04/26 11:15:21;;;;;;;1.85;1.25;;;13.70;79.80;;;;;;4990809;28;20142;-57
2022/04/26 11:17:50;;;;;;;5.88;1.30;;;13.50;75.20;;;;;;4990352;28;20097;-56
2022/04/26 11:20:24;;;;;;;2.50;1.13;;;13.50;81.90;;;;;;4990744;28;20096;-58
2022/04/26 11:22:52;;;;;;;5.72;1.40;;;13.70;81.80;;;;;;4990357;28;20082;-57
2022/04/26 11:28:06;;;;;;;4.82;1.30;;;13.80;81.00;;;;;;4986940;28;20102;-57
2022/04/26 11:30:43;;;;;;;1.67;1.10;;;13.90;81.40;;;;;;4990459;28;20054;-58
2022/04/26 11:33:18;;;;;;;4.32;1.20;;;13.90;75.80;;;;;;4989908;28;20084;-60
2022/04/26 11:35:56;;;;;;;2.40;1.30;;;14.00;80.10;;;;;;4990200;28;20082;-58
2022/04/26 11:38:24;;;;;;;2.13;1.30;;;14.10;82.10;;;;;;4988977;28;20568;-58
2022/04/26 11:41:01;;;;;;;4.75;1.60;;;14.20;79.50;;;;;;4990195;28;20082;-57
2022/04/26 11:43:31;;;;;;;5.13;1.42;;;14.30;76.10;;;;;;4989901;28;20078;-57
2022/04/26 11:45:58;;;;;;;4.75;1.45;;;14.30;74.60;;;;;;4979541;28;20085;-59
2022/04/26 11:48:29;;;;;;;2.50;1.33;;;14.30;80.70;;;;;;4984593;28;20058;-57
2022/04/26 11:50:57;;;;;;;2.05;1.40;;;14.30;77.30;;;;;;4990007;28;20097;-57
2022/04/26 11:53:28;;;;;;;2.05;1.35;;;14.30;79.10;;;;;;4989805;28;20159;-59
2022/04/26 11:55:56;;;;;;;3.58;1.50;;;14.30;79.70;;;;;;4986812;28;20093;-60
2022/04/26 11:58:39;;;;;;;7.05;2.35;;;14.30;78.50;;;;;;4989687;28;20105;-58
2022/04/26 12:01:13;;;;;;;2.22;1.60;;;14.20;71.40;;;;;;4989854;28;20163;-61
2022/04/26 12:03:46;;;;;;;2.85;1.60;;;14.30;80.80;;;;;;4989331;28;20062;-57
2022/04/26 12:06:15;;;;;;;3.92;1.98;;;14.50;79.00;;;;;;4985691;28;20494;-58
2022/04/26 12:08:49;;;;;;;3.22;1.98;;;14.70;79.90;;;;;;4988240;28;20050;-58
2022/04/26 12:11:23;;;;;;;2.58;1.70;;;14.90;80.60;;;;;;4989099;28;20073;-58
2022/04/26 12:14:08;;;;;;;3.88;1.75;;;15.00;75.70;;;;;;4989617;28;20497;-57
2022/04/26 12:16:37;;;;;;;4.45;1.83;;;15.20;72.20;;;;;;4986468;28;20085;-58
2022/04/26 12:19:04;;;;;;;5.55;1.75;;;15.20;76.30;;;;;;4989189;28;20050;-56
2022/04/26 12:21:54;;;;;;;3.65;1.48;;;15.20;77.10;;;;;;4989026;28;20166;-57
2022/04/26 12:24:23;;;;;;;2.47;1.45;;;15.10;69.30;;;;;;4989127;28;20129;-57
2022/04/26 12:26:57;;;;;;;3.95;1.40;;;15.10;74.70;;;;;;4989180;28;20046;-61
2022/04/26 12:29:46;;;;;;;4.47;1.35;;;15.00;74.60;;;;;;4989226;28;20118;-58
2022/04/26 12:32:17;;;;;;;5.28;2.05;;;14.80;70.00;;;;;;4986399;28;20085;-55
2022/04/26 12:34:48;;;;;;;6.35;1.70;;;14.70;77.60;;;;;;4988822;28;20120;-58
2022/04/26 12:37:22;;;;;;;6.90;2.20;;;14.80;75.20;;;;;;4973732;28;20129;-58
2022/04/26 12:39:54;;;;;;;3.67;1.92;;;15.00;68.30;;;;;;4988320;28;20096;-56
2022/04/26 12:42:27;;;;;;;2.45;1.27;;;14.90;67.50;;;;;;4987691;28;20129;-57
2022/04/26 12:45:01;;;;;;;9.00;4.30;;;15.00;71.60;;;;;;4989186;28;20058;-58
2022/04/26 12:50:29;;;;;;;5.65;1.70;;;15.10;73.80;;;;;;4989037;28;20086;-59
2022/04/26 12:53:04;;;;;;;5.32;1.67;;;15.00;70.80;;;;;;4987017;28;20058;-58
2022/04/26 12:55:34;;;;;;;3.97;1.30;;;15.10;69.30;;;;;;4985474;28;20060;-56
2022/04/26 12:58:02;;;;;;;2.83;1.30;;;15.20;73.60;;;;;;4988700;28;20137;-57
2022/04/26 13:00:29;;;;;;;1.65;1.30;;;15.40;72.10;;;;;;4988520;28;20104;-58
2022/04/26 13:02:58;;;;;;;3.15;1.30;;;15.50;70.80;;;;;;4987638;28;20050;-58
2022/04/26 13:05:51;;;;;;;3.67;1.35;;;15.60;73.00;;;;;;4988763;28;20125;-58
2022/04/26 13:08:19;;;;;;;2.63;1.30;;;15.70;62.40;;;;;;4985083;28;20073;-58
2022/04/26 13:10:47;;;;;;;1.88;1.33;;;15.70;70.50;;;;;;4985051;28;20409;-58
2022/04/26 13:13:14;;;;;;;6.72;1.38;;;15.70;70.60;;;;;;4988637;28;20291;-61
2022/04/26 13:15:41;;;;;;;5.07;1.30;;;15.80;71.50;;;;;;4988586;28;20058;-59
2022/04/26 13:18:08;;;;;;;1.45;1.10;;;16.00;69.00;;;;;;4988256;28;20051;-59
2022/04/26 13:20:35;;;;;;;2.58;1.30;;;16.00;70.20;;;;;;4988502;28;20126;-58
2022/04/26 13:23:10;;;;;;;5.60;1.40;;;16.20;64.30;;;;;;4988327;28;20050;-58
2022/04/26 13:25:36;;;;;;;4.57;0.93;;;16.30;67.70;;;;;;4988616;28;20869;-58
2022/04/26 13:28:04;;;;;;;1.48;1.17;;;16.20;59.30;;;;;;4988580;28;20077;-57
2022/04/26 13:30:31;;;;;;;3.92;1.85;;;15.90;66.60;;;;;;4988293;28;20050;-58
2022/04/26 13:32:58;;;;;;;2.53;1.67;;;15.90;67.00;;;;;;4988048;28;20050;-58
2022/04/26 13:35:25;;;;;;;4.28;1.10;;;16.00;66.70;;;;;;4988026;28;20104;-59
2022/04/26 13:37:52;;;;;;;3.03;1.40;;;16.10;65.80;;;;;;4986647;28;20042;-58
2022/04/26 13:40:19;;;;;;;3.70;1.40;;;16.10;65.70;;;;;;4983046;28;20050;-59
2022/04/26 13:42:46;;;;;;;3.55;1.60;;;16.10;66.00;;;;;;4988237;28;20089;-58
2022/04/26 13:45:13;;;;;;;2.13;1.33;;;16.20;66.00;;;;;;4992484;28;20498;-58
2022/04/26 13:47:40;;;;;;;3.50;1.40;;;16.30;65.00;;;;;;4991985;28;20078;-59
2022/04/26 13:50:08;;;;;;;3.88;1.60;;;16.50;65.30;;;;;;5007205;28;20077;-59
2022/04/26 13:52:35;;;;;;;2.17;1.17;;;16.80;64.20;;;;;;4991907;28;20501;-58
2022/04/26 13:55:02;;;;;;;1.85;1.23;;;16.90;65.00;;;;;;4991958;28;20080;-58
2022/04/26 13:57:28;;;;;;;4.30;1.38;;;16.80;64.10;;;;;;4990934;28;20152;-59
2022/04/26 13:59:55;;;;;;;2.38;1.15;;;16.70;64.30;;;;;;4991975;28;20405;-59
2022/04/26 14:02:22;;;;;;;1.85;1.10;;;16.60;64.40;;;;;;4991980;28;20212;-58
2022/04/26 14:04:49;;;;;;;7.15;1.75;;;16.70;64.60;;;;;;4991697;28;20133;-56
2022/04/26 14:07:16;;;;;;;1.40;1.27;;;16.70;64.80;;;;;;4991761;28;20109;-59
2022/04/26 14:09:42;;;;;;;2.95;1.27;;;16.70;64.40;;;;;;4991150;28;20081;-59
2022/04/26 14:12:11;;;;;;;1.85;1.50;;;16.60;63.50;;;;;;4992319;28;20145;-58
2022/04/26 14:22:54;;;;;;;1.83;1.50;;;16.30;63.20;;;;;;4991783;28;20565;-58
2022/04/26 14:25:21;;;;;;;3.95;1.50;;;16.20;64.20;;;;;;4991357;28;20078;-58
2022/04/26 14:27:49;;;;;;;3.03;1.35;;;16.10;64.10;;;;;;5004169;28;20067;-58
2022/04/26 14:30:16;;;;;;;3.33;1.25;;;16.10;64.60;;;;;;4987399;28;20154;-58
2022/04/26 14:33:03;;;;;;;4.57;1.38;;;16.00;62.90;;;;;;4984408;28;20057;-58
2022/04/26 14:35:32;;;;;;;4.50;1.20;;;16.20;64.70;;;;;;4987290;28;20151;-59
2022/04/26 14:37:59;;;;;;;4.90;1.65;;;16.20;65.30;;;;;;4972154;28;20564;-56
2022/04/26 14:40:26;;;;;;;1.55;1.10;;;16.30;62.20;;;;;;4985896;28;20093;-57
2022/04/26 14:42:54;;;;;;;3.95;1.38;;;16.70;65.60;;;;;;4991693;28;20133;-57
2022/04/26 14:45:21;;;;;;;3.83;1.30;;;16.70;65.20;;;;;;4991412;28;20058;-58
2022/04/26 14:47:49;;;;;;;7.97;1.55;;;16.60;63.70;;;;;;4991321;28;20508;-57
2022/04/26 14:50:18;;;;;;;4.72;1.42;;;16.60;65.90;;;;;;4990798;28;20053;-57
2022/04/26 14:52:44;;;;;;;6.32;1.40;;;16.50;65.30;;;;;;4991223;28;20078;-57
2022/04/26 14:55:11;;;;;;;2.13;1.40;;;16.40;65.50;;;;;;4977668;28;20050;-58
2022/04/26 14:57:38;;;;;;;4.75;1.75;;;16.30;65.40;;;;;;4972968;28;20059;-56
2022/04/26 15:00:07;;;;;;;4.60;1.50;;;16.30;65.90;;;;;;4976858;28;20574;-56
2022/04/26 15:02:38;;;;;;;2.67;1.75;;;16.20;63.70;;;;;;4990944;28;20082;-58
2022/04/26 15:05:07;;;;;;;2.05;1.33;;;16.20;66.30;;;;;;4990877;28;20070;-58
2022/04/26 15:10:20;;;;;;;4.03;1.40;;;16.10;65.90;;;;;;4990750;28;20137;-57
2022/04/26 15:18:17;;;;;;;2.72;1.02;;;16.30;64.30;;;;;;4982138;28;20058;-58
2022/04/26 15:20:50;;;;;;;4.82;1.20;;;16.30;66.40;;;;;;4990398;28;20089;-57
2022/04/26 15:23:18;;;;;;;13.00;1.42;;;16.20;63.40;;;;;;4979697;28;20050;-57
2022/04/26 15:25:55;;;;;;;2.83;1.23;;;16.20;67.40;;;;;;4988919;28;20047;-60
2022/04/26 15:28:23;;;;;;;7.10;1.55;;;16.10;67.30;;;;;;4978896;28;20050;-58
2022/04/26 15:30:50;;;;;;;3.08;1.45;;;16.10;67.10;;;;;;4988720;28;20585;-58
2022/04/26 15:33:17;;;;;;;1.75;1.42;;;16.20;66.90;;;;;;4989078;28;20054;-58
2022/04/26 15:35:44;;;;;;;3.83;1.70;;;16.40;68.70;;;;;;4988191;28;20133;-56
2022/04/26 15:38:12;;;;;;;2.42;1.60;;;16.50;68.40;;;;;;4988445;28;20077;-58
2022/04/26 15:40:40;;;;;;;3.30;1.50;;;16.60;68.90;;;;;;4988766;28;20521;-56
2022/04/26 15:43:07;;;;;;;3.08;1.90;;;17.10;66.80;;;;;;4988876;28;20086;-58
2022/04/26 15:45:34;;;;;;;2.15;1.52;;;17.30;68.60;;;;;;4990074;28;20051;-57
2022/04/26 15:48:00;;;;;;;3.65;1.50;;;17.30;67.60;;;;;;4989923;28;20126;-57
2022/04/26 15:50:28;;;;;;;4.68;1.60;;;17.30;67.10;;;;;;4988643;28;20057;-56
2022/04/26 15:52:55;;;;;;;4.78;1.70;;;17.20;68.60;;;;;;4988158;28;20042;-59
2022/04/26 15:55:22;;;;;;;6.18;1.95;;;17.20;69.50;;;;;;4988393;28;20050;-57
2022/04/26 15:57:51;;;;;;;3.65;2.25;;;17.00;68.60;;;;;;4983064;28;20112;-58
2022/04/26 16:00:20;;;;;;;4.43;1.65;;;16.90;69.50;;;;;;4984974;28;20509;-59
2022/04/26 16:02:48;;;;;;;4.35;2.35;;;17.00;69.90;;;;;;4641199;28;10000509;-58
2022/04/26 16:05:15;;;;;;;2.20;1.73;;;17.60;70.30;;;;;;4986372;28;20050;-59
2022/04/26 16:07:42;;;;;;;3.03;1.58;;;18.30;68.40;;;;;;4981177;28;20133;-59
2022/04/26 16:21:10;;;;;;;4.75;1.83;;;17.90;67.10;;;;;;4984596;28;20050;-57
2022/04/26 16:23:37;;;;;;;5.32;1.63;;;17.80;67.00;;;;;;4986398;28;20052;-60
2022/04/26 16:26:06;;;;;;;3.35;1.88;;;17.50;66.60;;;;;;4982401;28;20132;-59
2022/04/26 16:28:33;;;;;;;2.28;1.33;;;17.20;66.50;;;;;;4986626;28;20053;-59
2022/04/26 16:31:00;;;;;;;4.97;1.75;;;16.90;65.90;;;;;;4986753;28;20077;-58
2022/04/26 16:33:27;;;;;;;8.95;1.98;;;16.70;67.20;;;;;;4997184;28;20046;-60
2022/04/26 16:35:54;;;;;;;3.30;1.83;;;16.50;69.20;;;;;;4974924;28;20146;-58
2022/04/26 16:38:21;;;;;;;3.08;1.30;;;16.40;69.90;;;;;;4970803;28;20454;-58
2022/04/26 16:40:48;;;;;;;3.83;1.20;;;16.20;68.30;;;;;;4986534;28;20099;-58
2022/04/26 16:43:16;;;;;;;4.65;1.85;;;16.00;68.30;;;;;;4986359;28;20104;-59
2022/04/26 16:45:47;;;;;;;2.85;1.52;;;15.90;68.40;;;;;;4986217;28;20042;-58
2022/04/26 16:48:14;;;;;;;4.32;1.70;;;15.80;67.90;;;;;;4985832;28;20192;-60
2022/04/26 16:50:41;;;;;;;3.72;1.23;;;15.80;67.70;;;;;;4986233;28;20050;-60
2022/04/26 16:53:08;;;;;;;4.35;2.67;;;15.70;68.30;;;;;;4986265;28;20080;-58
2022/04/26 16:55:35;;;;;;;6.15;1.85;;;15.60;71.30;;;;;;4985734;28;20532;-58
2022/04/26 16:58:02;;;;;;;7.03;2.35;;;15.40;76.00;;;;;;4985619;28;20112;-58
2022/04/26 17:00:28;;;;;;;6.05;3.03;;;15.40;78.00;;;;;;4985061;28;20058;-59
2022/04/26 17:02:56;;;;;;;6.50;2.20;;;15.40;79.50;;;;;;5000922;28;20129;-60
2022/04/26 17:05:23;;;;;;;7.50;2.38;;;15.40;80.60;;;;;;4985925;28;20138;-59
2022/04/26 17:07:50;;;;;;;6.43;2.70;;;15.30;81.50;;;;;;4985749;28;20093;-59
2022/04/26 17:10:18;;;;;;;23.50;2.58;;;15.20;81.40;;;;;;4985798;28;20421;-60
2022/04/26 17:12:48;;;;;;;7.28;2.95;;;15.20;82.20;;;;;;4985850;28;20599;-59
2022/04/26 17:15:22;;;;;;;6.07;2.03;;;15.10;83.70;;;;;;4985285;28;20054;-58
2022/04/26 17:17:49;;;;;;;6.27;2.80;;;15.10;85.30;;;;;;4985506;28;20566;-59
2022/04/26 17:20:23;;;;;;;5.18;2.33;;;14.90;84.70;;;;;;4982395;28;20303;-59